Time;durP1;ratioP1;P1;durP2;ratioP2;P2;SDS_P1;SDS_P2;PMS_P1;PMS_P2;Temp;Humidity;BMP_temperature;BMP_pressure;BME280_temperature;BME280_humidity;BME280_pressure;Samples;Min_cycle;Max_cycle;Signal;HPM_P1;HPM_P2
2024/03/20 00:02:32;;;;;;;134.70;42.30;;;;;;;1.31;78.65;101194.94;656933;1260;140059;-66
2024/03/20 00:17:35;;;;;;;124.90;43.70;;;;;;;1.22;78.11;101198.17;655716;1276;141384;-63
2024/03/20 00:32:39;;;;;;;135.50;41.60;;;;;;;1.17;78.55;101193.17;657185;1273;139903;-61
2024/03/20 00:47:42;;;;;;;90.70;35.10;;;;;;;1.09;77.63;101187.60;656530;1265;139294;-62
2024/03/20 01:02:46;;;;;;;83.10;31.20;;;;;;;0.99;78.12;101181.71;656100;1266;140110;-62
2024/03/20 01:17:49;;;;;;;88.60;35.30;;;;;;;0.92;78.06;101168.48;656047;1270;140077;-60
2024/03/20 01:32:53;;;;;;;189.20;64.20;;;;;;;0.80;77.73;101164.60;656157;1265;140778;-63
2024/03/20 01:47:56;;;;;;;106.20;40.80;;;;;;;0.66;77.75;101160.06;656016;1266;139737;-62
2024/03/20 02:03:02;;;;;;;107.20;39.00;;;;;;;0.61;77.87;101156.77;655839;1276;141025;-60
2024/03/20 02:18:06;;;;;;;86.00;31.50;;;;;;;0.54;78.11;101151.16;656603;1273;140333;-64
2024/03/20 02:33:09;;;;;;;70.90;27.00;;;;;;;0.54;78.27;101141.67;656625;1266;139702;-63
2024/03/20 02:48:14;;;;;;;81.20;29.20;;;;;;;0.57;77.45;101127.64;655721;1267;139098;-61
2024/03/20 03:03:17;;;;;;;51.20;21.50;;;;;;;0.44;77.55;101108.78;656130;1260;139144;-63
2024/03/20 03:18:24;;;;;;;135.60;50.10;;;;;;;0.27;77.84;101100.91;656607;1264;139154;-60
2024/03/20 03:33:28;;;;;;;126.90;45.10;;;;;;;0.19;77.60;101112.85;660136;1264;139561;-63
2024/03/20 03:48:32;;;;;;;61.60;23.90;;;;;;;0.16;76.79;101109.85;658083;1264;140498;-63
2024/03/20 04:03:39;;;;;;;77.20;31.30;;;;;;;0.14;77.01;101109.02;658364;1266;140577;-61
2024/03/20 04:18:43;;;;;;;127.00;40.40;;;;;;;0.06;76.96;101119.79;658045;1265;139728;-63
2024/03/20 04:33:47;;;;;;;57.30;21.10;;;;;;;-0.01;77.00;101137.56;659030;1270;139308;-60
2024/03/20 04:48:50;;;;;;;42.70;18.80;;;;;;;0.05;77.20;101142.17;659926;1265;139379;-64
2024/03/20 05:03:53;;;;;;;66.90;27.40;;;;;;;0.19;77.83;101141.56;658798;1266;139761;-59
2024/03/20 05:18:56;;;;;;;264.70;85.00;;;;;;;0.64;77.89;101138.08;659945;1262;139514;-61
2024/03/20 05:33:59;;;;;;;354.50;127.60;;;;;;;1.02;78.03;101144.56;659650;1276;139712;-59
2024/03/20 05:49:03;;;;;;;420.60;155.50;;;;;;;1.48;78.70;101145.02;659769;1264;139431;-61
2024/03/20 06:04:06;;;;;;;367.30;134.80;;;;;;;2.29;79.52;101146.42;658871;1265;139457;-61
2024/03/20 06:19:09;;;;;;;171.90;56.00;;;;;;;3.40;80.77;101135.23;657022;1265;141001;-61
2024/03/20 06:34:12;;;;;;;68.50;30.00;;;;;;;4.34;81.88;101138.04;657845;1277;139591;-64
2024/03/20 06:49:18;;;;;;;206.30;84.70;;;;;;;4.67;81.51;101147.02;658654;1265;139332;-59
2024/03/20 07:04:24;;;;;;;275.50;143.50;;;;;;;5.60;80.48;101165.85;658507;1265;139632;-66
2024/03/20 07:19:30;;;;;;;86.90;37.40;;;;;;;3.91;80.34;101181.05;658439;1265;228225;-60
2024/03/20 07:45:40;;;;;;;168.00;54.90;;;;;;;3.25;82.82;101190.75;654027;1303;545042;-81
2024/03/20 08:00:44;;;;;;;66.00;30.50;;;;;;;3.33;84.13;101193.34;666397;1275;138759;-79
2024/03/20 08:15:47;;;;;;;58.50;26.10;;;;;;;3.53;84.71;101200.26;663628;1275;138942;-80
2024/03/20 08:30:50;;;;;;;104.70;37.60;;;;;;;3.64;85.89;101195.26;664350;1274;138664;-79
2024/03/20 08:45:54;;;;;;;83.40;32.10;;;;;;;4.14;85.82;101200.45;667047;1280;139393;-80
2024/03/20 09:00:57;;;;;;;64.50;28.40;;;;;;;4.67;86.16;101195.17;666484;1288;138883;-80
2024/03/20 09:16:01;;;;;;;172.40;82.10;;;;;;;4.91;85.19;101192.30;672107;1263;138931;-79
2024/03/20 09:31:04;;;;;;;113.20;39.20;;;;;;;5.26;85.14;101189.64;671520;1265;139410;-80
2024/03/20 09:46:15;;;;;;;92.30;35.70;;;;;;;5.69;84.89;101178.94;669109;1264;139805;-80
2024/03/20 10:01:22;;;;;;;149.80;58.90;;;;;;;6.39;83.82;101169.94;669388;1263;139223;-81
2024/03/20 10:16:28;;;;;;;109.30;33.80;;;;;;;7.04;82.85;101162.06;668299;1263;139521;-81
2024/03/20 10:31:35;;;;;;;125.00;37.50;;;;;;;7.68;81.88;101142.50;667980;1273;139862;-81
2024/03/20 10:46:40;;;;;;;119.30;45.60;;;;;;;8.20;80.82;101130.48;669390;1265;139335;-82
2024/03/20 11:01:56;;;;;;;156.60;54.30;;;;;;;8.90;79.12;101137.64;669291;1274;139420;-80
2024/03/20 11:17:01;;;;;;;65.10;30.50;;;;;;;8.96;78.28;101132.52;668046;1273;139445;-80
2024/03/20 11:32:04;;;;;;;75.30;31.30;;;;;;;9.56;77.00;101122.19;669060;1274;139467;-81
2024/03/20 11:47:12;;;;;;;89.20;34.00;;;;;;;9.98;76.35;101116.36;668670;1264;139546;-80
2024/03/20 12:02:24;;;;;;;107.00;43.40;;;;;;;9.91;76.00;101101.70;668592;1264;139289;-80
2024/03/20 12:17:28;;;;;;;;;;;;;;;9.85;74.63;101091.13;673836;1260;139614;-81
2024/03/20 12:32:31;;;;;;;51.40;25.20;;;;;;;9.77;73.88;101081.37;671854;1264;126690;-80
2024/03/20 12:47:34;;;;;;;37.90;21.00;;;;;;;10.75;72.67;101060.34;669978;1263;139569;-81
2024/03/20 13:02:38;;;;;;;35.90;19.00;;;;;;;11.16;70.58;101048.14;669296;1260;140173;-81
2024/03/20 13:17:42;;;;;;;27.50;15.90;;;;;;;10.78;68.48;101042.10;668963;1260;139111;-79
2024/03/20 13:32:45;;;;;;;31.10;15.50;;;;;;;10.78;67.51;101026.91;669309;1261;140186;-80
2024/03/20 13:47:51;;;;;;;27.70;15.60;;;;;;;11.11;66.80;101018.07;673927;1264;139510;-79
2024/03/20 14:02:54;;;;;;;32.20;15.10;;;;;;;11.10;65.33;101009.20;673837;1263;141011;-81
2024/03/20 14:17:58;;;;;;;112.00;38.80;;;;;;;11.18;65.53;101004.19;674563;1264;139558;-79
2024/03/20 14:33:02;;;;;;;32.00;16.40;;;;;;;11.02;65.08;100993.40;673165;1259;139910;-79
2024/03/20 14:48:08;;;;;;;38.50;15.10;;;;;;;10.82;63.82;100989.85;672205;1263;139412;-87
2024/03/20 15:03:13;;;;;;;58.20;24.60;;;;;;;10.97;64.11;100991.87;672299;1273;139542;-89
2024/03/20 15:18:17;;;;;;;23.70;15.00;;;;;;;10.81;63.83;100985.05;675934;1263;140149;-78
2024/03/20 15:33:20;;;;;;;49.20;23.50;;;;;;;10.53;62.96;100974.23;676853;1265;140892;-79
2024/03/20 15:48:23;;;;;;;34.50;18.80;;;;;;;10.42;63.07;100959.69;672661;1259;139534;-78
2024/03/20 16:03:28;;;;;;;74.70;34.90;;;;;;;10.36;63.07;100959.42;674472;1265;139371;-79
2024/03/20 16:18:32;;;;;;;167.10;52.30;;;;;;;10.07;64.71;100961.58;672902;1276;139372;-79
2024/03/20 16:33:36;;;;;;;152.30;50.90;;;;;;;9.63;66.02;100967.33;672179;1262;140635;-79
2024/03/20 16:48:39;;;;;;;147.40;51.10;;;;;;;8.92;67.61;100973.02;673373;1267;139465;-80
2024/03/20 17:03:54;;;;;;;131.00;45.80;;;;;;;8.17;69.39;100976.02;674404;1261;138737;-78
2024/03/20 17:35:01;;;;;;;264.00;79.70;;;;;;;7.35;71.61;100983.39;651578;1298;2614011;-79
2024/03/20 17:50:06;;;;;;;226.10;75.70;;;;;;;7.13;72.17;100986.02;666763;1274;139226;-79
2024/03/20 18:05:10;;;;;;;221.30;84.60;;;;;;;6.77;73.42;100990.42;668026;1273;139738;-80
2024/03/20 18:20:14;;;;;;;170.50;61.20;;;;;;;6.44;74.63;100998.35;670210;1272;139837;-79
2024/03/20 18:35:18;;;;;;;211.10;75.40;;;;;;;6.16;75.49;101002.55;669486;1270;139274;-79
2024/03/20 18:50:21;;;;;;;135.40;49.80;;;;;;;6.08;76.88;101003.36;665582;1274;139046;-79
2024/03/20 19:05:24;;;;;;;79.60;34.10;;;;;;;6.09;77.53;100999.48;667168;1270;139706;-79
2024/03/20 19:20:30;;;;;;;101.90;39.90;;;;;;;6.07;78.50;100993.00;669207;1269;139699;-79
2024/03/20 19:35:35;;;;;;;82.70;33.20;;;;;;;6.05;79.64;101000.26;669007;1265;139931;-80
2024/03/20 19:50:38;;;;;;;98.00;50.90;;;;;;;6.02;80.57;100995.89;674027;1263;139103;-80
2024/03/20 20:05:41;;;;;;;110.00;47.50;;;;;;;6.00;81.17;100989.60;675118;1263;138836;-80
2024/03/20 20:20:45;;;;;;;126.70;45.00;;;;;;;6.09;82.07;100989.21;671672;1263;139711;-80
2024/03/20 20:35:49;;;;;;;76.70;33.10;;;;;;;6.05;82.47;100984.23;671737;1262;140235;-80
2024/03/20 20:50:52;;;;;;;75.10;32.80;;;;;;;5.99;82.30;100977.66;678921;1262;139475;-80
2024/03/20 21:21:17;;;;;;;107.40;39.80;;;;;;;6.06;83.10;100972.94;676152;1262;138882;-80
2024/03/20 21:36:22;;;;;;;98.90;43.60;;;;;;;6.12;82.99;100982.09;675855;1259;139445;-78
2024/03/20 21:51:27;;;;;;;61.40;28.60;;;;;;;6.06;83.31;100979.18;675284;1264;138774;-80
2024/03/20 22:06:30;;;;;;;63.40;28.80;;;;;;;5.95;83.78;100973.50;679356;1262;138715;-81
2024/03/20 22:21:33;;;;;;;65.90;29.60;;;;;;;6.06;84.43;100990.60;674625;1262;139657;-81
2024/03/20 22:36:36;;;;;;;89.70;35.90;;;;;;;6.10;83.33;100975.83;680253;1263;139090;-81
2024/03/20 22:51:40;;;;;;;65.60;28.10;;;;;;;6.14;83.34;100977.64;677796;1262;139100;-79
2024/03/20 23:06:43;;;;;;;94.30;36.90;;;;;;;5.98;83.67;100976.33;677680;1267;139619;-79
2024/03/20 23:33:19;;;;;;;88.30;41.10;;;;;;;5.45;82.80;100969.92;659429;1290;545165;-79
2024/03/20 23:48:23;;;;;;;56.40;24.10;;;;;;;5.60;82.98;100952.60;671303;1276;138873;-78
